createdAt,value
2022-11-07T00:02:03.002Z,95672.00
2022-11-07T00:04:31.612Z,95682.06
2022-11-07T00:07:08.681Z,95694.13
2022-11-07T00:09:40.785Z,95693.16
2022-11-07T00:12:08.195Z,95714.28
2022-11-07T00:14:35.774Z,95683.38
2022-11-07T00:17:03.184Z,95699.81
2022-11-07T00:19:33.066Z,95709.41
2022-11-07T00:22:00.876Z,95713.16
2022-11-07T00:24:28.214Z,95724.38
2022-11-07T00:26:56.148Z,95726.31
2022-11-07T00:29:23.708Z,95720.97
2022-11-07T00:31:50.975Z,95738.19
2022-11-07T00:34:18.418Z,95741.47
2022-11-07T00:36:45.765Z,95749.94
2022-11-07T00:39:13.173Z,95741.47
2022-11-07T00:41:40.891Z,95750.75
2022-11-07T00:44:10.183Z,95737.56
2022-11-07T00:46:37.294Z,95737.72
2022-11-07T00:49:04.503Z,95744.88
2022-11-07T00:51:32.376Z,95736.41
2022-11-07T00:54:01.427Z,95733.16
2022-11-07T00:56:37.798Z,95743.88
2022-11-07T00:59:05.091Z,95752.50
2022-11-07T01:01:36.790Z,95749.41
2022-11-07T01:04:25.612Z,95751.03
2022-11-07T01:06:52.385Z,95756.06
2022-11-07T01:09:22.539Z,95750.69
2022-11-07T01:11:50.060Z,95747.97
2022-11-07T01:14:26.567Z,95745.50
2022-11-07T01:16:59.015Z,95745.31
2022-11-07T01:19:26.233Z,95740.28
2022-11-07T01:21:53.568Z,95748.75
2022-11-07T01:24:20.829Z,95748.56
2022-11-07T01:26:48.212Z,95738.16
2022-11-07T01:29:21.759Z,95745.84
2022-11-07T01:31:49.046Z,95738.97
2022-11-07T01:34:19.689Z,95736.50
2022-11-07T01:36:49.056Z,95735.69
2022-11-07T01:39:16.504Z,95734.19
2022-11-07T01:41:43.761Z,95728.19
2022-11-07T01:44:10.450Z,95728.66
2022-11-07T01:46:41.651Z,95735.78
2022-11-07T01:49:11.404Z,95741.16
2022-11-07T01:51:44.251Z,95748.47
2022-11-07T01:54:13.361Z,95752.19
2022-11-07T01:56:43.277Z,95752.03
2022-11-07T01:59:13.778Z,95745.56
2022-11-07T02:01:41.716Z,95747.66
2022-11-07T02:04:09.597Z,95738.38
2022-11-07T02:07:04.617Z,95748.47
2022-11-07T02:09:32.069Z,95748.75
2022-11-07T02:12:01.135Z,95751.22
2022-11-07T02:14:29.171Z,95758.38
2022-11-07T02:16:57.039Z,95750.56
2022-11-07T02:19:47.383Z,95753.97
2022-11-07T02:22:34.661Z,95740.28
2022-11-07T02:25:06.639Z,95741.13
2022-11-07T02:27:34.704Z,95744.84
2022-11-07T02:30:09.143Z,95757.66
2022-11-07T02:32:36.069Z,95755.22
2022-11-07T02:35:07.591Z,95749.84
2022-11-07T02:37:37.611Z,95750.53
2022-11-07T02:40:08.341Z,95750.53
2022-11-07T02:42:44.156Z,95756.81
2022-11-07T02:45:19.122Z,95753.44
2022-11-07T02:47:46.051Z,95747.72
2022-11-07T02:50:15.394Z,95760.22
2022-11-07T02:52:42.467Z,95755.03
2022-11-07T02:55:10.173Z,95751.44
2022-11-07T02:57:36.993Z,95756.78
2022-11-07T03:00:05.309Z,95759.72
2022-11-07T03:02:32.160Z,95768.31
2022-11-07T03:04:59.147Z,95776.78
2022-11-07T03:07:26.061Z,95779.59
2022-11-07T03:09:53.549Z,95785.31
2022-11-07T03:12:20.656Z,95784.97
2022-11-07T03:14:47.410Z,95775.25
2022-11-07T03:17:14.182Z,95769.25
2022-11-07T03:19:40.956Z,95775.91
2022-11-07T03:22:07.711Z,95793.81
2022-11-07T03:24:34.424Z,95793.94
2022-11-07T03:27:01.163Z,95792.31
2022-11-07T03:29:27.879Z,95784.38
2022-11-07T03:31:54.699Z,95790.25
2022-11-07T03:34:21.432Z,95792.84
2022-11-07T03:36:48.266Z,95789.91
2022-11-07T03:39:15.056Z,95804.56
2022-11-07T03:41:41.849Z,95807.84
2022-11-07T03:44:08.627Z,95815.97
2022-11-07T03:46:35.387Z,95818.28
2022-11-07T03:49:02.161Z,95828.84
2022-11-07T03:51:28.889Z,95814.72
2022-11-07T03:53:55.621Z,95812.09
2022-11-07T03:56:22.909Z,95820.88
2022-11-07T03:58:49.873Z,95815.69
2022-11-07T04:01:16.803Z,95821.03
2022-11-07T04:03:43.634Z,95821.03
2022-11-07T04:06:10.403Z,95829.66
2022-11-07T04:08:37.233Z,95838.44
2022-11-07T04:11:03.967Z,95841.03
2022-11-07T04:13:48.883Z,95841.69
2022-11-07T04:16:37.035Z,95839.09
2022-11-07T04:19:04.348Z,95855.69
2022-11-07T04:21:31.110Z,95853.75
2022-11-07T04:23:57.812Z,95862.69
2022-11-07T04:26:43.235Z,95879.09
2022-11-07T04:29:09.957Z,95876.84
2022-11-07T04:31:36.643Z,95869.03
2022-11-07T04:34:03.348Z,95865.78
2022-11-07T04:36:30.122Z,95882.38
2022-11-07T04:38:56.865Z,95879.91
2022-11-07T04:41:24.466Z,95865.78
2022-11-07T04:43:51.788Z,95859.97
2022-11-07T04:46:18.649Z,95861.44
2022-11-07T04:48:45.482Z,95851.53
2022-11-07T04:51:18.160Z,95859.69
2022-11-07T04:53:44.947Z,95861.84
2022-11-07T04:56:11.709Z,95869.19
2022-11-07T04:58:38.464Z,95863.81
2022-11-07T05:01:05.284Z,95861.38
2022-11-07T05:03:32.012Z,95870.81
2022-11-07T05:05:59.394Z,95882.69
2022-11-07T05:08:26.121Z,95871.16
2022-11-07T05:10:53.003Z,95865.66
2022-11-07T05:13:19.698Z,95870.53
2022-11-07T05:15:46.568Z,95880.44
2022-11-07T05:18:13.357Z,95873.59
2022-11-07T05:20:40.324Z,95881.41
2022-11-07T05:23:15.694Z,95869.50
2022-11-07T05:25:45.077Z,95889.22
2022-11-07T05:28:13.867Z,95884.84
2022-11-07T05:30:42.192Z,95881.25
2022-11-07T05:33:10.535Z,95875.56
2022-11-07T05:35:37.663Z,95885.13
2022-11-07T05:38:04.658Z,95873.75
2022-11-07T05:40:32.295Z,95880.44
2022-11-07T05:43:00.799Z,95881.41
2022-11-07T05:45:28.736Z,95883.88
2022-11-07T05:48:03.433Z,95889.75
2022-11-07T05:50:30.631Z,95887.78
2022-11-07T05:52:58.308Z,95883.53
2022-11-07T05:55:26.382Z,95869.41
2022-11-07T05:57:54.120Z,95879.00
2022-11-07T06:00:21.073Z,95886.47
2022-11-07T06:03:00.615Z,95886.78
2022-11-07T06:05:29.108Z,95894.41
2022-11-07T06:07:56.130Z,95898.03
2022-11-07T06:10:24.229Z,95902.09
2022-11-07T06:13:02.022Z,95908.94
2022-11-07T06:15:30.866Z,95910.72
2022-11-07T06:18:01.902Z,95913.31
2022-11-07T06:20:28.784Z,95912.66
2022-11-07T06:22:59.846Z,95894.59
2022-11-07T06:25:27.095Z,95915.56
2022-11-07T06:27:54.253Z,95916.38
2022-11-07T06:30:21.046Z,95919.16
2022-11-07T06:32:47.828Z,95931.19
2022-11-07T06:35:14.675Z,95936.25
2022-11-07T06:37:41.538Z,95926.50
2022-11-07T06:40:09.364Z,95931.75
2022-11-07T06:42:36.328Z,95930.44
2022-11-07T06:45:03.316Z,95930.31
2022-11-07T06:47:30.058Z,95941.22
2022-11-07T06:49:56.890Z,95943.38
2022-11-07T06:52:23.766Z,95940.81
2022-11-07T06:54:50.606Z,95952.91
2022-11-07T06:57:17.349Z,95950.13
2022-11-07T06:59:50.436Z,95961.88
2022-11-07T07:02:37.298Z,95966.41
2022-11-07T07:05:05.700Z,95967.09
2022-11-07T07:07:32.884Z,95967.75
2022-11-07T07:09:59.790Z,95977.34
2022-11-07T07:12:26.747Z,95980.31
2022-11-07T07:14:53.566Z,95979.84
2022-11-07T07:17:20.308Z,95981.50
2022-11-07T07:19:47.121Z,95980.50
2022-11-07T07:22:14.392Z,95983.59
2022-11-07T07:24:41.191Z,95980.69
2022-11-07T07:27:07.968Z,95986.09
2022-11-07T07:29:35.967Z,95982.84
2022-11-07T07:32:02.771Z,95980.59
2022-11-07T07:34:29.585Z,95978.03
2022-11-07T07:36:56.414Z,95973.66
2022-11-07T07:39:24.597Z,95975.78
2022-11-07T07:41:51.474Z,95970.91
2022-11-07T07:44:21.389Z,95971.59
2022-11-07T07:46:48.147Z,95970.75
2022-11-07T07:49:14.944Z,95968.66
2022-11-07T07:51:41.784Z,95967.19
2022-11-07T07:54:10.542Z,95973.88
2022-11-07T07:56:37.501Z,95972.75
2022-11-07T07:59:04.744Z,95974.88
2022-11-07T08:01:31.641Z,95988.25
2022-11-07T08:04:02.043Z,95989.22
2022-11-07T08:06:30.289Z,95978.16
2022-11-07T08:08:57.125Z,95987.47
2022-11-07T08:11:23.984Z,95995.13
2022-11-07T08:13:50.731Z,95992.34
2022-11-07T08:16:17.761Z,95994.81
2022-11-07T08:18:44.493Z,95989.59
2022-11-07T08:21:11.351Z,95981.41
2022-11-07T08:23:38.177Z,95976.34
2022-11-07T08:26:05.476Z,95962.81
2022-11-07T08:28:35.498Z,95953.03
2022-11-07T08:31:12.040Z,95974.09
2022-11-07T08:33:39.332Z,95995.47
2022-11-07T08:36:07.219Z,95988.25
2022-11-07T08:38:35.514Z,95972.28
2022-11-07T08:41:02.644Z,95976.69
2022-11-07T08:43:29.752Z,95966.25
2022-11-07T08:45:56.514Z,95972.75
2022-11-07T08:48:23.785Z,95961.50
2022-11-07T08:50:55.255Z,95967.22
2022-11-07T08:53:23.329Z,95973.25
2022-11-07T08:55:50.362Z,95977.81
2022-11-07T08:58:17.950Z,95972.28
2022-11-07T09:00:44.986Z,95975.53
2022-11-07T09:06:01.293Z,95987.44
2022-11-07T09:08:28.314Z,95982.22
2022-11-07T09:10:55.132Z,95986.63
2022-11-07T09:13:21.986Z,95975.84
2022-11-07T09:15:51.304Z,95971.63
2022-11-07T09:18:19.747Z,95982.56
2022-11-07T09:20:47.399Z,95988.91
2022-11-07T09:23:14.604Z,95973.88
2022-11-07T09:25:41.973Z,95982.03
2022-11-07T09:28:09.392Z,95989.88
2022-11-07T09:30:36.415Z,95980.03
2022-11-07T09:33:03.269Z,95984.59
2022-11-07T09:35:30.044Z,95984.09
2022-11-07T09:37:56.844Z,95983.81
2022-11-07T09:40:48.840Z,96005.00
2022-11-07T09:43:24.792Z,95996.66
2022-11-07T09:46:01.404Z,96003.81
2022-11-07T09:48:37.273Z,96006.13
2022-11-07T09:51:04.879Z,96004.16
2022-11-07T09:53:36.901Z,96012.66
2022-11-07T09:56:05.290Z,96008.00
2022-11-07T09:58:40.819Z,96002.47
2022-11-07T10:01:13.483Z,96020.59
2022-11-07T10:03:49.039Z,96012.59
2022-11-07T10:06:36.752Z,96012.75
2022-11-07T10:09:23.741Z,96015.16
2022-11-07T10:11:50.478Z,96005.69
2022-11-07T10:14:30.775Z,95994.56
2022-11-07T10:17:00.546Z,96005.72
2022-11-07T10:19:39.561Z,96002.13
2022-11-07T10:22:26.526Z,96005.03
2022-11-07T10:25:31.108Z,95996.69
2022-11-07T10:28:19.551Z,95997.34
2022-11-07T10:30:51.516Z,95996.81
2022-11-07T10:33:44.936Z,95994.84
2022-11-07T10:36:25.069Z,95999.72
2022-11-07T10:38:52.202Z,95993.81
2022-11-07T10:41:20.613Z,95992.94
2022-11-07T10:44:00.961Z,96000.59
2022-11-07T10:46:39.107Z,95995.78
2022-11-07T10:49:20.262Z,95991.31
2022-11-07T10:51:47.281Z,95977.88
2022-11-07T10:54:26.213Z,95980.94
2022-11-07T10:57:07.324Z,95977.19
2022-11-07T10:59:36.753Z,95978.19
2022-11-07T11:02:21.782Z,95982.69
2022-11-07T11:04:55.185Z,95965.66
2022-11-07T11:07:28.390Z,95977.94
2022-11-07T11:09:57.881Z,95968.44
2022-11-07T11:12:33.951Z,95977.47
2022-11-07T11:15:04.216Z,95957.69
2022-11-07T11:17:31.312Z,95973.22
2022-11-07T11:19:58.254Z,95967.78
2022-11-07T11:22:25.930Z,95955.19
2022-11-07T11:25:20.006Z,95972.88
2022-11-07T11:27:56.390Z,95963.56
2022-11-07T11:30:24.107Z,95970.31
2022-11-07T11:33:05.491Z,95965.41
2022-11-07T11:35:49.849Z,95964.44
2022-11-07T11:38:38.575Z,95975.91
2022-11-07T11:41:32.929Z,95971.38
2022-11-07T11:44:16.514Z,95983.81
2022-11-07T11:47:00.830Z,95988.41
2022-11-07T11:49:50.286Z,95983.16
2022-11-07T11:52:21.879Z,95976.66
2022-11-07T11:54:51.430Z,95977.63
2022-11-07T11:57:24.314Z,95985.13
2022-11-07T12:00:16.763Z,95979.75
2022-11-07T12:03:07.201Z,95974.31
2022-11-07T12:05:45.866Z,95978.75
2022-11-07T12:08:27.718Z,95972.16
2022-11-07T12:11:13.408Z,95976.88
2022-11-07T12:14:03.970Z,95978.50
2022-11-07T12:16:41.776Z,95980.94
2022-11-07T12:19:27.236Z,95974.25
2022-11-07T12:21:59.347Z,95982.44
2022-11-07T12:24:54.922Z,95986.09
2022-11-07T12:27:27.888Z,95989.31
2022-11-07T12:30:30.135Z,95987.00
2022-11-07T12:33:16.718Z,95983.69
2022-11-07T12:35:45.925Z,95982.69
2022-11-07T12:38:27.857Z,95978.25
2022-11-07T12:41:24.110Z,95986.78
2022-11-07T12:44:12.027Z,95979.03
2022-11-07T12:46:51.778Z,95977.06
2022-11-07T12:49:57.047Z,95978.69
2022-11-07T12:52:36.086Z,95978.19
2022-11-07T12:55:16.403Z,95978.69
2022-11-07T12:57:43.995Z,95977.69
2022-11-07T13:00:30.738Z,95981.13
2022-11-07T13:03:25.371Z,95975.69
2022-11-07T13:06:18.609Z,95970.66
2022-11-07T13:09:07.577Z,95970.47
2022-11-07T13:12:06.457Z,95977.97
2022-11-07T13:14:41.429Z,95976.06
2022-11-07T13:17:20.190Z,95980.03
2022-11-07T13:20:06.377Z,95980.28
2022-11-07T13:22:41.215Z,95989.94
2022-11-07T13:25:17.039Z,95983.53
2022-11-07T13:28:01.681Z,95989.59
2022-11-07T13:30:31.053Z,95990.06
2022-11-07T13:32:59.268Z,95975.59
2022-11-07T13:35:34.105Z,95977.06
2022-11-07T13:38:08.485Z,95985.72
2022-11-07T13:40:49.593Z,95987.38
2022-11-07T13:43:26.909Z,95982.25
2022-11-07T13:46:01.306Z,95982.69
2022-11-07T13:48:40.182Z,95978.44
2022-11-07T13:51:34.073Z,95989.13
2022-11-07T13:54:06.574Z,95988.28
2022-11-07T13:56:40.468Z,95988.75
2022-11-07T13:59:14.244Z,95996.91
2022-11-07T14:01:43.391Z,95996.91
2022-11-07T14:04:20.120Z,95992.13
2022-11-07T14:06:47.683Z,95995.38
2022-11-07T14:09:18.087Z,95993.91
2022-11-07T14:11:46.851Z,96002.78
2022-11-07T14:14:15.237Z,95992.47
2022-11-07T14:16:46.116Z,95987.50
2022-11-07T14:19:27.381Z,95992.47
2022-11-07T14:21:55.777Z,95994.91
2022-11-07T14:24:28.859Z,95990.22
2022-11-07T14:27:05.555Z,95996.97
2022-11-07T14:29:33.433Z,95994.88
2022-11-07T14:32:06.642Z,96005.38
2022-11-07T14:34:45.010Z,96000.13
2022-11-07T14:37:16.916Z,96008.31
2022-11-07T14:39:44.954Z,96016.06
2022-11-07T14:42:17.717Z,96011.34
2022-11-07T14:44:54.467Z,96016.97
2022-11-07T14:47:29.213Z,96014.66
2022-11-07T14:49:57.698Z,96012.38
2022-11-07T14:52:40.700Z,96013.72
2022-11-07T14:55:37.156Z,96010.00
2022-11-07T14:58:05.823Z,96010.34
2022-11-07T15:00:34.028Z,96010.06
2022-11-07T15:03:01.153Z,96004.34
2022-11-07T15:05:45.101Z,95999.94
2022-11-07T15:08:28.521Z,96001.44
2022-11-07T15:11:03.872Z,95993.63
2022-11-07T15:13:35.056Z,95995.97
2022-11-07T15:16:38.979Z,95994.34
2022-11-07T15:19:08.889Z,95994.34
2022-11-07T15:21:50.832Z,95995.31
2022-11-07T15:24:34.555Z,95992.06
2022-11-07T15:27:17.086Z,95998.72
2022-11-07T15:30:13.601Z,95989.09
2022-11-07T15:32:43.225Z,95993.03
2022-11-07T15:35:37.992Z,95991.41
2022-11-07T15:38:03.093Z,95996.16
2022-11-07T15:40:30.361Z,95996.53
2022-11-07T15:42:57.412Z,95996.34
2022-11-07T15:45:24.774Z,95986.88
2022-11-07T15:47:51.872Z,95985.94
2022-11-07T15:50:24.863Z,95994.78
2022-11-07T15:52:54.424Z,95989.88
2022-11-07T15:55:23.180Z,95990.56
2022-11-07T15:57:52.423Z,95994.69
2022-11-07T16:00:22.389Z,95999.25
2022-11-07T16:02:52.368Z,95994.72
2022-11-07T16:05:19.361Z,96005.19
2022-11-07T16:07:46.612Z,95999.94
2022-11-07T16:10:21.730Z,95997.84
2022-11-07T16:12:49.494Z,95996.91
2022-11-07T16:15:17.873Z,95998.06
2022-11-07T16:17:44.872Z,96005.41
2022-11-07T16:20:21.593Z,96017.50
2022-11-07T16:22:50.103Z,96008.53
2022-11-07T16:25:22.037Z,96008.66
2022-11-07T16:27:59.554Z,96017.69
2022-11-07T16:30:27.626Z,96014.25
2022-11-07T16:32:54.738Z,96016.88
2022-11-07T16:35:22.351Z,96015.06
2022-11-07T16:37:49.568Z,96016.53
2022-11-07T16:40:19.328Z,96028.66
2022-11-07T16:42:47.482Z,96029.63
2022-11-07T16:45:16.480Z,96034.06
2022-11-07T16:47:46.417Z,96046.94
2022-11-07T16:50:15.798Z,96053.50
2022-11-07T16:52:43.728Z,96058.72
2022-11-07T16:55:20.147Z,96061.97
2022-11-07T16:57:49.876Z,96062.44
2022-11-07T17:00:19.061Z,96050.19
2022-11-07T17:02:46.391Z,96054.44
2022-11-07T17:05:20.495Z,96050.50
2022-11-07T17:07:49.403Z,96061.44
2022-11-07T17:10:17.629Z,96062.75
2022-11-07T17:12:44.535Z,96062.22
2022-11-07T17:15:11.769Z,96064.19
2022-11-07T17:17:40.490Z,96064.53
2022-11-07T17:20:07.965Z,96063.69
2022-11-07T17:22:34.684Z,96070.56
2022-11-07T17:25:01.462Z,96069.09
2022-11-07T17:27:28.307Z,96078.91
2022-11-07T17:29:55.406Z,96075.63
2022-11-07T17:32:25.442Z,96068.78
2022-11-07T17:35:10.998Z,96089.88
2022-11-07T17:37:39.508Z,96072.22
2022-11-07T17:40:06.896Z,96070.06
2022-11-07T17:42:37.832Z,96074.66
2022-11-07T17:45:06.158Z,96072.03
2022-11-07T17:47:34.486Z,96068.63
2022-11-07T17:50:01.599Z,96060.13
2022-11-07T17:52:28.309Z,96065.06
2022-11-07T17:54:55.116Z,96063.91
2022-11-07T17:57:22.264Z,96062.25
2022-11-07T17:59:49.436Z,96054.59
2022-11-07T18:02:18.113Z,96058.19
2022-11-07T18:04:45.696Z,96054.09
2022-11-07T18:07:13.083Z,96059.31
2022-11-07T18:09:41.313Z,96061.59
2022-11-07T18:12:09.154Z,96050.50
2022-11-07T18:14:36.670Z,96051.97
2022-11-07T18:17:03.913Z,96057.03
2022-11-07T18:19:31.023Z,96057.69
2022-11-07T18:21:58.385Z,96055.69
2022-11-07T18:24:25.221Z,96051.94
2022-11-07T18:26:52.167Z,96058.97
2022-11-07T18:29:19.695Z,96050.47
2022-11-07T18:31:50.736Z,96057.50
2022-11-07T18:34:17.584Z,96043.94
2022-11-07T18:36:45.654Z,96054.22
2022-11-07T18:39:18.507Z,96053.06
2022-11-07T18:41:45.320Z,96054.72
2022-11-07T18:44:12.548Z,96055.38
2022-11-07T18:46:39.693Z,96050.13
2022-11-07T18:49:07.292Z,96045.56
2022-11-07T18:51:34.610Z,96059.28
2022-11-07T18:54:03.203Z,96050.28
2022-11-07T18:56:30.235Z,96047.84
2022-11-07T18:58:57.293Z,96043.06
2022-11-07T19:01:28.436Z,96051.06
2022-11-07T19:03:56.648Z,96047.97
2022-11-07T19:06:25.389Z,96045.72
2022-11-07T19:08:52.398Z,96050.13
2022-11-07T19:11:28.794Z,96050.47
2022-11-07T19:13:59.767Z,96051.25
2022-11-07T19:16:26.650Z,96044.56
2022-11-07T19:18:53.439Z,96041.94
2022-11-07T19:21:21.596Z,96046.53
2022-11-07T19:23:50.052Z,96049.16
2022-11-07T19:26:19.158Z,96042.75
2022-11-07T19:28:46.513Z,96051.44
2022-11-07T19:31:14.058Z,96051.09
2022-11-07T19:33:41.943Z,96056.84
2022-11-07T19:36:16.692Z,96059.31
2022-11-07T19:38:44.342Z,96060.00
2022-11-07T19:41:12.448Z,96060.03
2022-11-07T19:43:39.992Z,96061.34
2022-11-07T19:46:09.885Z,96062.00
2022-11-07T19:48:37.088Z,96069.34
2022-11-07T19:51:08.449Z,96057.63
2022-11-07T19:53:35.199Z,96059.75
2022-11-07T19:56:08.733Z,96064.31
2022-11-07T19:58:39.186Z,96059.25
2022-11-07T20:01:10.853Z,96070.34
2022-11-07T20:03:37.740Z,96062.88
2022-11-07T20:06:04.886Z,96061.22
2022-11-07T20:08:31.617Z,96062.53
2022-11-07T20:10:58.325Z,96052.25
2022-11-07T20:13:25.073Z,96067.94
2022-11-07T20:15:51.780Z,96062.03
2022-11-07T20:18:18.583Z,96064.84
2022-11-07T20:20:45.345Z,96063.03
2022-11-07T20:23:12.074Z,96063.16
2022-11-07T20:25:42.002Z,96062.34
2022-11-07T20:28:09.272Z,96061.38
2022-11-07T20:30:36.026Z,96060.41
2022-11-07T20:33:02.780Z,96062.34
2022-11-07T20:35:29.563Z,96070.88
2022-11-07T20:37:59.522Z,96065.63
2022-11-07T20:40:29.148Z,96069.88
2022-11-07T20:42:56.303Z,96076.09
2022-11-07T20:45:23.019Z,96077.06
2022-11-07T20:47:50.689Z,96080.53
2022-11-07T20:50:17.501Z,96079.53
2022-11-07T20:52:44.218Z,96073.63
2022-11-07T20:55:11.782Z,96074.28
2022-11-07T20:57:38.524Z,96074.63
2022-11-07T21:00:05.775Z,96079.00
2022-11-07T21:02:32.543Z,96075.78
2022-11-07T21:07:48.311Z,96084.59
2022-11-07T21:10:15.211Z,96087.03
2022-11-07T21:12:42.912Z,96087.03
2022-11-07T21:15:10.442Z,96082.59
2022-11-07T21:17:37.414Z,96087.19
2022-11-07T21:20:05.254Z,96084.59
2022-11-07T21:22:32.456Z,96076.09
2022-11-07T21:24:59.219Z,96082.78
2022-11-07T21:27:25.990Z,96076.56
2022-11-07T21:29:52.762Z,96077.72
2022-11-07T21:32:19.455Z,96085.38
2022-11-07T21:34:47.358Z,96072.97
2022-11-07T21:37:14.095Z,96082.28
2022-11-07T21:39:40.864Z,96080.66
2022-11-07T21:42:07.575Z,96083.44
2022-11-07T21:44:34.312Z,96082.59
2022-11-07T21:47:01.112Z,96082.28
2022-11-07T21:49:27.931Z,96079.84
2022-11-07T21:51:56.966Z,96072.16
2022-11-07T21:54:24.780Z,96075.78
2022-11-07T21:56:51.591Z,96069.06
2022-11-07T21:59:19.173Z,96080.34
2022-11-07T22:01:48.814Z,96075.25
2022-11-07T22:04:16.049Z,96081.97
2022-11-07T22:06:45.127Z,96067.28
2022-11-07T22:09:15.397Z,96074.63
2022-11-07T22:11:42.260Z,96067.44
2022-11-07T22:14:13.576Z,96070.69
2022-11-07T22:16:40.436Z,96075.28
2022-11-07T22:19:12.015Z,96069.88
2022-11-07T22:21:39.885Z,96071.50
2022-11-07T22:24:07.016Z,96077.72
2022-11-07T22:26:33.762Z,96082.09
2022-11-07T22:29:00.567Z,96079.50
2022-11-07T22:31:30.381Z,96086.22
2022-11-07T22:33:59.690Z,96076.88
2022-11-07T22:36:26.557Z,96068.56
2022-11-07T22:38:53.386Z,96077.06
2022-11-07T22:41:24.700Z,96080.66
2022-11-07T22:43:51.798Z,96088.84
2022-11-07T22:46:21.372Z,96086.22
2022-11-07T22:48:49.007Z,96092.91
2022-11-07T22:51:19.912Z,96090.13
2022-11-07T22:53:46.963Z,96097.16
2022-11-07T22:56:15.848Z,96099.91
2022-11-07T22:58:43.371Z,96104.34
2022-11-07T23:01:25.334Z,96095.66
2022-11-07T23:03:52.903Z,96097.16
2022-11-07T23:06:20.421Z,96097.31
2022-11-07T23:08:48.352Z,96086.22
2022-11-07T23:11:52.887Z,96088.00
2022-11-07T23:14:08.778Z,96079.50
2022-11-07T23:16:40.373Z,96079.19
2022-11-07T23:19:10.943Z,96080.50
2022-11-07T23:21:37.740Z,96084.06
2022-11-07T23:24:04.982Z,96081.47
2022-11-07T23:26:35.526Z,96078.06
2022-11-07T23:29:10.121Z,96078.84
2022-11-07T23:31:39.486Z,96079.69
2022-11-07T23:34:06.723Z,96071.84
2022-11-07T23:36:33.607Z,96076.72
2022-11-07T23:39:08.020Z,96077.75
2022-11-07T23:41:35.035Z,96077.25
2022-11-07T23:44:02.377Z,96078.06
2022-11-07T23:46:47.738Z,96075.63
2022-11-07T23:49:33.036Z,96075.75
2022-11-07T23:51:59.817Z,96076.59
2022-11-07T23:54:45.343Z,96073.00
2022-11-07T23:57:12.105Z,96070.22
2022-11-07T23:59:57.678Z,96073.00
